Garoua International Airport

FKKR · North, Kamerun

METAR-Geschichte FKKR · Garoua International Airport

Unten siehst du die METARs der letzten paar Tage. Wähle ein Jahr, um ältere METARs ab dem Jahr 2007 zu durchsuchen.

1. März 2024

Uhrzeit Code Wetter Temp. Sichtweite Wolkendecke Wind METAR/SPECI
21:00
M
33 °C 6 km - 320° 320° 7 kt METAR FTTJ 012000Z 32007KT 6000 NSC 33/03 Q1007 NOSIG
20:00
I
34 °C 4,5 km - 340° 340° 5 kt METAR FTTJ 011900Z 34005KT 4500 DU NSC 34/M02 Q1006 BECMG 6000 NSW
19:00
I
36 °C 4 km - 340° 340° 7 kt METAR FTTJ 011800Z 34007KT 4000 DU NSC 36/M02 Q1006 NOSIG
18:00
M
38 °C 6 km - 020° 020° 6 kt METAR FTTJ 011700Z 02006KT 6000 NSC 38/00 Q1005 TEMPO 4000 DU
17:00
M
41 °C 7 km - 020° 020° 8 kt METAR FTTJ 011600Z 02008KT 7000 NSC 41/00 Q1005 NOSIG
15:00
V
42 °C 8 km - 050° 050° 9 kt METAR FTTJ 011400Z 05009KT 360V110 8000 NSC 42/M01 Q1004 NOSIG
14:00
M
41 °C 7 km - 030° 030° 11 kt METAR FTTJ 011300Z 03011KT 360V060 7000 NSC 41/M02 Q1005 NOSIG
13:00
M
40 °C 6 km - 030° 030° 11 kt METAR FTTJ 011200Z 03011KT 350V070 6000 NSC 40/M02 Q1007 NOSIG
12:00
M
41 °C 6 km - 020° 020° 12 kt METAR FTTJ 011100Z 02012KT 350V050 6000 NSC 41/M02 Q1007 NOSIG
11:00
M
39 °C 6 km - 040° 040° 13 kt METAR FTTJ 011000Z 04013KT 6000 NSC 39/M03 Q1008 NOSIG
10:00
M
36 °C 6 km - 050° 050° 11 kt METAR FTTJ 010900Z 05011KT 020V080 6000 NSC 36/M02 Q1009 NOSIG
09:00
M
33 °C 6 km - 060° 060° 11 kt METAR FTTJ 010800Z 06011KT 6000 NSC 33/00 Q1009 NOSIG
08:00
I
28 °C 4 km - 040° 040° 4 kt METAR FTTJ 010700Z 04004KT 360V080 4000 DU NSC 28/03 Q1008 NOSIG
07:00
M
27 °C 6 km - 020° 020° 4 kt METAR FTTJ 010600Z 02004KT 6000 NSC 27/03 Q1007 TEMPO 4000 DU
06:00
M
27 °C 6 km - 360° 360° 6 kt METAR FTTJ 010500Z 36006KT 6000 NSC 27/04 Q1007 NOSIG
05:00
M
27 °C 6 km - 340° 340° 4 kt METAR FTTJ 010400Z 34004KT 6000 NSC 27/07 Q1006 NOSIG
03:00
M
29 °C 6 km - 340° 340° 7 kt METAR FTTJ 010200Z 34007KT 6000 NSC 29/07 Q1005 NOSIG
02:00
M
29 °C 6 km - 330° 330° 4 kt METAR FTTJ 010100Z 33004KT 6000 NSC 29/06 Q1005 NOSIG
01:00
M
29 °C 6 km - 340° 340° 4 kt METAR FTTJ 010000Z 34004KT 6000 NSC 29/05 Q1006 NOSIG
00:00
M
31 °C 6 km - 330° 330° 5 kt METAR FTTJ 292300Z 33005KT 6000 NSC 31/05 Q1006 NOSIG

29. Februar 2024

Uhrzeit Code Wetter Temp. Sichtweite Wolkendecke Wind METAR/SPECI
23:00
M
32 °C 6 km - 320° 320° 5 kt METAR FTTJ 292200Z 32005KT 6000 NSC 32/04 Q1006 NOSIG
22:00
M
32 °C 6 km - 310° 310° 6 kt METAR FTTJ 292100Z 31006KT 6000 NSC 32/05 Q1006 NOSIG
21:00
V
33 °C 8 km - 310° 310° 5 kt METAR FTTJ 292000Z 31005KT 8000 NSC 33/06 Q1005 NOSIG
20:00
V
35 °C 8 km - 340° 340° 5 kt METAR FTTJ 291900Z 34005KT 8000 NSC 35/05 Q1005 NOSIG
19:00
I
37 °C 4 km - 340° 340° 8 kt METAR FTTJ 291800Z 34008KT 4000 DU NSC 37/05 Q1003 NOSIG
18:00
I
39 °C 4 km - 360° 360° 4 kt METAR FTTJ 291700Z 36004KT 4000 DUNSC 39/03 Q1003 NOSIG
17:00
V
42 °C 8 km - 040° 040° 5 kt METAR FTTJ 291600Z 04005KT 350V070 8000 NSC 42/03 Q1003 NOSIG
16:00
V
43 °C 8 km - Var Var 2 kt METAR FTTJ 291500Z VRB02KT 8000 NSC 43/04 Q1003 NOSIG
15:00
V
43 °C 8 km - 360° 360° 5 kt METAR FTTJ 291400Z 36005KT 290V080 8000 NSC 43/04 Q1003 NOSIG
14:00
V
43 °C 8 km - 320° 320° 7 kt METAR FTTJ 291300Z 32007KT 280V010 8000 NSC 43/03 Q1004 NOSIG
13:00
V
42 °C 8 km - 080° 080° 8 kt METAR FTTJ 291200Z 08008KT 030V120 8000 NSC 42/03 Q1005 NOSIG
12:00
V
41 °C 8 km - 100° 100° 7 kt METAR FTTJ 291100Z 10007KT 050V160 8000 NSC 41/01 Q1006 NOSIG
11:00
M
40 °C 7 km - 100° 100° 8 kt METAR FTTJ 291000Z 10008KT 070V130 7000 NSC 40/01 Q1007 NOSIG
10:00
M
37 °C 7 km - 070° 070° 8 kt METAR FTTJ 290900Z 07008KT 7000 NSC 37/00 Q1008 NOSIG
09:00
M
33 °C 6 km - 050° 050° 7 kt METAR FTTJ 290800Z 05007KT 6000 NSC 33/M01 Q1008 NOSIG
08:00
M
30 °C 6 km - 040° 040° 6 kt METAR FTTJ 290700Z 04006KT 010V070 6000 NSC 30/M02 Q1007 NOSIG
07:00
M
25 °C 6 km - 020° 020° 5 kt METAR FTTJ 290600Z 02005KT 6000 NSC 25/01 Q1007 NOSIG
06:00
M
24 °C 7 km - 030° 030° 5 kt METAR FTTJ 290500Z 03005KT 7000 NSC 24/02 Q1006 NOSIG
05:00
M
26 °C 7 km - 020° 020° 5 kt METAR FTTJ 290400Z 02005KT 7000 NSC 26/02 Q1006 NOSIG
04:00
M
27 °C 7 km - 020° 020° 5 kt METAR FTTJ 290300Z 02005KT 7000 NSC 27/03 Q1006 NOSIG
03:00
M
27 °C 7 km - 360° 360° 4 kt METAR FTTJ 290200Z 36004KT 7000 NSC 27/08 Q1006 NOSIG
02:00
M
28 °C 7 km - 360° 360° 5 kt METAR FTTJ 290100Z 36005KT 7000 NSC 28/07 Q1006 NOSIG
01:00
M
28 °C 7 km - 360° 360° 4 kt METAR FTTJ 290000Z 36004KT 7000 NSC 28/07 Q1006 NOSIG
00:00
M
30 °C 7 km - 340° 340° 5 kt METAR FTTJ 282300Z 34005KT 7000 NSC 30/05 Q1007 NOSIG

28. Februar 2024

Uhrzeit Code Wetter Temp. Sichtweite Wolkendecke Wind METAR/SPECI
23:00
M
31 °C 7 km - 350° 350° 5 kt METAR FTTJ 282200Z 35005KT 7000 NSC 31/06 Q1007 NOSIG
22:00
M
31 °C 6 km - 350° 350° 4 kt METAR FTTJ 282100Z 35004KT 6000 NSC 31/04 Q1007 NOSIG
21:00
M
33 °C 6 km - 350° 350° 5 kt METAR FTTJ 282000Z 35005KT 6000 NSC 33/05 Q1006 NOSIG
20:00
I
35 °C 4 km - 340° 340° 6 kt METAR FTTJ 281900Z 34006KT 4000 DU NSC 35/05 Q1006 TEMPO 6000 NSW
19:00
I
35 °C 4 km - 310° 310° 2 kt METAR FTTJ 281800Z 31002KT 4000 DU NSC 35/07 Q1005 NOSIG
18:00
V
39 °C 8 km - 360° 360° 3 kt METAR FTTJ 281700Z 36003KT 8000 NSC 39/04 Q1005 TEMPO 4000 DU
17:00
V
41 °C 8 km - 340° 340° 4 kt METAR FTTJ 281600Z 34004KT 280V090 8000 NSC 41/03 Q1004 NOSIG
16:00
V
42 °C 8 km - 170° 170° 3 kt METAR FTTJ 281500Z 17003KT 110V230 8000 NSC 42/04 Q1004 NOSIG
15:00
V
43 °C 8 km - Var Var 2 kt METAR FTTJ 281400Z VRB02KT 8000 NSC 43/03 Q1005 NOSIG
14:00
V
42 °C 8 km - Var Var 4 kt METAR FTTJ 281300Z VRB04KT 8000 NSC 42/03 Q1006 NOSIG
13:00
V
41 °C 8 km - Var Var 5 kt METAR FTTJ 281200Z VRB05KT 8000 NSC 41/02 Q1007 NOSIG
12:00
V
40 °C 8 km - 070° 070° 7 kt METAR FTTJ 281100Z 07007KT 020V150 8000 NSC 40/00 Q1008 NOSIG
11:00
M
39 °C 7 km - 080° 080° 10 kt METAR FTTJ 281000Z 08010KT 050V110 7000 NSC 39/M03 Q1009 NOSIG
10:00
M
37 °C 7 km - 070° 070° 10 kt METAR FTTJ 280900Z 07010KT 7000 NSC 37/M03 Q1010 NOSIG
09:00
M
33 °C 6 km - 050° 050° 12 kt METAR FTTJ 280800Z 05012KT 6000 NSC 33/M03 Q1009 NOSIG
08:00
M
29 °C 6 km - 050° 050° 11 kt METAR FTTJ 280700Z 05011KT 6000 NSC 29/M01 Q1009 NOSIG
07:00
M
24 °C 6 km - 040° 040° 5 kt METAR FTTJ 280600Z 04005KT 6000 NSC 24/00 Q1009 NOSIG